createdAt,value
2023-01-07T00:01:11.480Z,62.20
2023-01-07T00:03:38.597Z,62.18
2023-01-07T00:06:07.160Z,62.24
2023-01-07T00:08:35.531Z,62.14
2023-01-07T00:11:03.256Z,62.37
2023-01-07T00:13:30.111Z,62.42
2023-01-07T00:16:00.699Z,62.43
2023-01-07T00:18:27.619Z,62.31
2023-01-07T00:21:01.532Z,62.69
2023-01-07T00:23:28.964Z,62.65
2023-01-07T00:26:07.093Z,62.54
2023-01-07T00:28:34.481Z,62.48
2023-01-07T00:31:01.993Z,62.44
2023-01-07T00:33:28.783Z,62.57
2023-01-07T00:36:02.449Z,63.11
2023-01-07T00:38:29.186Z,63.42
2023-01-07T00:40:55.933Z,63.48
2023-01-07T00:43:22.565Z,63.28
2023-01-07T00:45:49.407Z,63.45
2023-01-07T00:48:17.585Z,63.70
2023-01-07T00:50:44.682Z,63.80
2023-01-07T00:53:11.622Z,64.08
2023-01-07T00:55:38.504Z,64.07
2023-01-07T00:58:05.394Z,64.07
2023-01-07T01:00:32.262Z,64.19
2023-01-07T01:02:59.566Z,64.17
2023-01-07T01:05:26.585Z,64.18
2023-01-07T01:07:53.244Z,64.54
2023-01-07T01:10:20.176Z,64.70
2023-01-07T01:12:49.343Z,64.83
2023-01-07T01:15:16.660Z,64.91
2023-01-07T01:17:43.382Z,64.83
2023-01-07T01:20:12.921Z,64.88
2023-01-07T01:22:39.682Z,64.77
2023-01-07T01:25:07.068Z,65.16
2023-01-07T01:27:33.741Z,65.13
2023-01-07T01:30:00.459Z,65.28
2023-01-07T01:32:27.558Z,65.30
2023-01-07T01:34:54.473Z,65.17
2023-01-07T01:37:21.539Z,65.50
2023-01-07T01:39:48.432Z,65.71
2023-01-07T01:42:16.418Z,65.50
2023-01-07T01:44:49.288Z,65.57
2023-01-07T01:47:46.542Z,65.47
2023-01-07T01:50:23.876Z,65.16
2023-01-07T01:52:58.744Z,65.05
2023-01-07T01:55:36.866Z,64.86
2023-01-07T01:58:09.892Z,64.50
2023-01-07T02:00:36.684Z,64.34
2023-01-07T02:03:04.830Z,64.29
2023-01-07T02:05:32.960Z,64.37
2023-01-07T02:07:59.870Z,64.11
2023-01-07T02:10:28.675Z,64.07
2023-01-07T02:13:25.623Z,63.36
2023-01-07T02:15:55.416Z,63.03
2023-01-07T02:18:25.048Z,62.96
2023-01-07T02:21:07.109Z,62.84
2023-01-07T02:23:53.032Z,62.97
2023-01-07T02:27:08.268Z,63.04
2023-01-07T02:29:54.550Z,63.29
2023-01-07T02:32:31.865Z,63.50
2023-01-07T02:35:39.343Z,63.68
2023-01-07T02:38:27.790Z,63.94
2023-01-07T02:41:12.270Z,64.17
2023-01-07T02:43:57.366Z,64.37
2023-01-07T02:46:30.430Z,64.58
2023-01-07T02:49:00.997Z,64.62
2023-01-07T02:51:46.143Z,64.40
2023-01-07T02:54:17.389Z,64.21
2023-01-07T02:56:54.577Z,64.09
2023-01-07T02:59:43.000Z,64.16
2023-01-07T03:02:35.144Z,64.31
2023-01-07T03:05:28.062Z,63.99
2023-01-07T03:08:15.717Z,64.20
2023-01-07T03:10:48.480Z,64.01
2023-01-07T03:13:20.715Z,63.65
2023-01-07T03:15:51.815Z,63.85
2023-01-07T03:18:26.685Z,63.93
2023-01-07T03:20:54.927Z,63.79
2023-01-07T03:23:22.741Z,63.54
2023-01-07T03:25:50.393Z,63.82
2023-01-07T03:28:19.570Z,63.61
2023-01-07T03:30:46.200Z,63.44
2023-01-07T03:33:37.416Z,63.51
2023-01-07T03:36:04.192Z,63.38
2023-01-07T03:38:30.951Z,63.40
2023-01-07T03:40:58.529Z,63.37
2023-01-07T03:43:25.228Z,63.55
2023-01-07T03:45:52.832Z,63.62
2023-01-07T03:48:19.573Z,63.63
2023-01-07T03:50:48.093Z,63.41
2023-01-07T03:53:14.783Z,63.37
2023-01-07T03:55:44.159Z,63.24
2023-01-07T03:58:10.861Z,63.34
2023-01-07T04:00:37.517Z,63.04
2023-01-07T04:03:11.627Z,62.54
2023-01-07T04:05:40.692Z,62.30
2023-01-07T04:08:07.948Z,62.06
2023-01-07T04:10:37.073Z,62.05
2023-01-07T04:13:03.807Z,62.07
2023-01-07T04:15:30.479Z,62.30
2023-01-07T04:17:57.387Z,62.21
2023-01-07T04:20:24.391Z,62.37
2023-01-07T04:22:51.068Z,62.41
2023-01-07T04:25:17.789Z,62.41
2023-01-07T04:27:44.501Z,62.19
2023-01-07T04:30:11.996Z,62.12
2023-01-07T04:32:38.821Z,62.18
2023-01-07T04:35:05.728Z,62.29
2023-01-07T04:37:33.209Z,62.15
2023-01-07T04:40:00.803Z,62.05
2023-01-07T04:42:29.254Z,62.38
2023-01-07T04:44:56.409Z,62.33
2023-01-07T04:47:23.047Z,62.33
2023-01-07T04:49:50.303Z,62.66
2023-01-07T04:52:17.116Z,62.74
2023-01-07T04:54:43.806Z,62.75
2023-01-07T04:57:10.556Z,62.61
2023-01-07T04:59:37.519Z,62.63
2023-01-07T05:02:04.764Z,62.34
2023-01-07T05:04:32.048Z,62.62
2023-01-07T05:06:58.846Z,62.69
2023-01-07T05:09:25.793Z,62.70
2023-01-07T05:11:52.783Z,62.75
2023-01-07T05:14:19.674Z,62.82
2023-01-07T05:16:47.832Z,62.90
2023-01-07T05:19:14.582Z,62.82
2023-01-07T05:21:43.987Z,62.55
2023-01-07T05:24:11.238Z,62.59
2023-01-07T05:26:38.041Z,62.04
2023-01-07T05:29:05.004Z,61.84
2023-01-07T05:31:32.439Z,61.96
2023-01-07T05:33:59.179Z,61.82
2023-01-07T05:36:26.053Z,61.78
2023-01-07T05:38:53.384Z,61.64
2023-01-07T05:41:20.975Z,61.67
2023-01-07T05:43:47.679Z,61.75
2023-01-07T05:46:14.373Z,62.12
2023-01-07T05:48:41.307Z,62.16
2023-01-07T05:51:08.034Z,61.64
2023-01-07T05:53:34.810Z,61.51
2023-01-07T05:56:01.725Z,61.63
2023-01-07T05:58:28.558Z,61.52
2023-01-07T06:00:55.273Z,61.49
2023-01-07T06:03:22.102Z,61.55
2023-01-07T06:05:48.920Z,61.32
2023-01-07T06:08:15.555Z,61.21
2023-01-07T06:10:42.652Z,61.37
2023-01-07T06:13:09.395Z,61.60
2023-01-07T06:15:36.271Z,61.85
2023-01-07T06:18:02.957Z,62.19
2023-01-07T06:20:34.836Z,62.77
2023-01-07T06:25:38.124Z,63.46
2023-01-07T06:28:05.208Z,63.99
2023-01-07T06:30:31.957Z,64.19
2023-01-07T06:32:58.848Z,64.49
2023-01-07T06:35:25.791Z,64.39
2023-01-07T06:37:52.464Z,64.36
2023-01-07T06:40:19.191Z,64.32
2023-01-07T06:42:45.834Z,64.44
2023-01-07T06:45:12.538Z,64.08
2023-01-07T06:47:39.211Z,63.74
2023-01-07T06:50:06.888Z,63.48
2023-01-07T06:52:33.835Z,63.42
2023-01-07T06:55:00.483Z,63.30
2023-01-07T06:57:27.222Z,63.20
2023-01-07T06:59:53.848Z,63.14
2023-01-07T07:02:22.457Z,63.13
2023-01-07T07:04:49.433Z,63.18
2023-01-07T07:07:16.680Z,63.16
2023-01-07T07:09:43.482Z,63.65
2023-01-07T07:12:10.314Z,63.64
2023-01-07T07:14:36.978Z,63.73
2023-01-07T07:17:04.427Z,63.71
2023-01-07T07:19:31.265Z,63.81
2023-01-07T07:21:57.904Z,64.04
2023-01-07T07:24:24.591Z,64.11
2023-01-07T07:26:51.281Z,64.34
2023-01-07T07:29:17.956Z,64.37
2023-01-07T07:31:44.605Z,64.46
2023-01-07T07:34:11.339Z,64.36
2023-01-07T07:36:38.019Z,64.13
2023-01-07T07:39:05.071Z,63.80
2023-01-07T07:41:31.740Z,63.90
2023-01-07T07:43:59.132Z,64.24
2023-01-07T07:46:25.792Z,64.16
2023-01-07T07:48:52.496Z,64.11
2023-01-07T07:51:19.180Z,64.23
2023-01-07T07:53:45.816Z,64.41
2023-01-07T07:56:12.484Z,64.46
2023-01-07T07:58:39.149Z,64.66
2023-01-07T08:01:06.321Z,64.70
2023-01-07T08:03:33.358Z,64.72
2023-01-07T08:06:00.099Z,64.52
2023-01-07T08:08:26.787Z,64.58
2023-01-07T08:10:55.557Z,64.72
2023-01-07T08:13:22.664Z,64.65
2023-01-07T08:15:49.361Z,64.84
2023-01-07T08:18:16.165Z,64.69
2023-01-07T08:20:42.854Z,64.37
2023-01-07T08:23:10.056Z,64.40
2023-01-07T08:25:36.741Z,64.00
2023-01-07T08:28:03.555Z,64.14
2023-01-07T08:30:30.786Z,64.29
2023-01-07T08:32:57.851Z,64.00
2023-01-07T08:35:24.544Z,63.86
2023-01-07T08:37:51.190Z,63.83
2023-01-07T08:40:17.978Z,63.31
2023-01-07T08:42:44.758Z,63.34
2023-01-07T08:45:12.802Z,63.72
2023-01-07T08:47:39.533Z,63.44
2023-01-07T08:50:07.038Z,63.28
2023-01-07T08:52:33.709Z,62.82
2023-01-07T08:55:00.349Z,62.85
2023-01-07T08:57:27.001Z,62.91
2023-01-07T08:59:53.633Z,63.05
2023-01-07T09:02:20.614Z,63.37
2023-01-07T09:04:47.346Z,63.49
2023-01-07T09:07:13.981Z,63.63
2023-01-07T09:09:42.981Z,63.75
2023-01-07T09:12:11.054Z,63.51
2023-01-07T09:14:38.194Z,63.34
2023-01-07T09:17:04.880Z,63.03
2023-01-07T09:19:31.579Z,63.04
2023-01-07T09:21:58.278Z,63.11
2023-01-07T09:24:24.957Z,62.79
2023-01-07T09:26:51.754Z,62.47
2023-01-07T09:29:18.604Z,62.41
2023-01-07T09:31:45.691Z,62.11
2023-01-07T09:34:12.566Z,61.64
2023-01-07T09:36:39.205Z,61.76
2023-01-07T09:39:05.939Z,61.39
2023-01-07T09:41:47.932Z,61.22
2023-01-07T09:44:45.086Z,61.26
2023-01-07T09:47:13.293Z,61.00
2023-01-07T09:49:40.024Z,61.09
2023-01-07T09:52:08.751Z,61.12
2023-01-07T09:54:36.909Z,61.06
2023-01-07T09:57:06.816Z,60.63
2023-01-07T09:59:33.491Z,60.82
2023-01-07T10:02:03.166Z,60.82
2023-01-07T10:04:49.845Z,60.84
2023-01-07T10:07:30.120Z,60.78
2023-01-07T10:10:00.856Z,60.26
2023-01-07T10:12:42.031Z,60.08
2023-01-07T10:15:47.453Z,60.05
2023-01-07T10:18:36.679Z,60.15
2023-01-07T10:21:06.323Z,60.43
2023-01-07T10:23:35.899Z,60.37
2023-01-07T10:26:03.319Z,60.67
2023-01-07T10:28:48.906Z,60.97
2023-01-07T10:31:21.357Z,60.94
2023-01-07T10:33:48.557Z,60.86
2023-01-07T10:36:28.282Z,61.16
2023-01-07T10:39:21.061Z,61.37
2023-01-07T10:42:12.627Z,61.73
2023-01-07T10:44:54.238Z,62.04
2023-01-07T10:47:25.203Z,61.79
2023-01-07T10:50:22.322Z,61.71
2023-01-07T10:53:19.200Z,61.53
2023-01-07T10:56:06.076Z,60.62
2023-01-07T10:59:04.428Z,60.64
2023-01-07T11:01:37.761Z,60.35
2023-01-07T11:04:05.104Z,60.08
2023-01-07T11:06:48.741Z,60.34
2023-01-07T11:09:18.409Z,60.78
2023-01-07T11:11:45.188Z,60.20
2023-01-07T11:14:14.187Z,60.34
2023-01-07T11:16:56.854Z,60.19
2023-01-07T11:19:24.046Z,60.24
2023-01-07T11:21:52.259Z,60.43
2023-01-07T11:24:18.921Z,60.75
2023-01-07T11:26:46.025Z,60.65
2023-01-07T11:29:20.946Z,60.42
2023-01-07T11:32:00.729Z,60.31
2023-01-07T11:34:37.919Z,60.05
2023-01-07T11:37:04.997Z,59.60
2023-01-07T11:39:34.650Z,59.22
2023-01-07T11:42:36.174Z,58.86
2023-01-07T11:45:19.388Z,58.55
2023-01-07T11:47:53.568Z,58.00
2023-01-07T11:50:25.580Z,57.69
2023-01-07T11:53:00.214Z,57.88
2023-01-07T11:55:26.935Z,58.08
2023-01-07T11:58:00.971Z,58.12
2023-01-07T12:00:41.201Z,58.22
2023-01-07T12:03:11.947Z,58.38
2023-01-07T12:05:39.712Z,58.88
2023-01-07T12:08:06.432Z,58.59
2023-01-07T12:10:35.205Z,58.73
2023-01-07T12:13:03.977Z,59.47
2023-01-07T12:15:32.463Z,59.70
2023-01-07T12:18:08.335Z,59.60
2023-01-07T12:21:20.043Z,59.88
2023-01-07T12:23:46.678Z,59.83
2023-01-07T12:26:19.253Z,59.73
2023-01-07T12:29:04.584Z,59.65
2023-01-07T12:32:03.545Z,59.59
2023-01-07T12:34:37.809Z,59.41
2023-01-07T12:37:23.624Z,59.33
2023-01-07T12:39:53.330Z,59.46
2023-01-07T12:44:56.964Z,59.59
2023-01-07T12:47:30.563Z,59.64
2023-01-07T12:50:24.749Z,59.54
2023-01-07T12:52:57.716Z,59.87
2023-01-07T12:55:44.965Z,60.10
2023-01-07T12:58:44.889Z,60.42
2023-01-07T13:01:26.785Z,60.57
2023-01-07T13:04:15.095Z,60.54
2023-01-07T13:06:55.382Z,61.06
2023-01-07T13:09:41.265Z,61.28
2023-01-07T13:12:43.513Z,61.36
2023-01-07T13:15:13.621Z,61.47
2023-01-07T13:17:40.967Z,61.68
2023-01-07T13:20:14.400Z,61.50
2023-01-07T13:22:44.532Z,61.57
2023-01-07T13:25:17.893Z,61.72
2023-01-07T13:27:54.362Z,61.49
2023-01-07T13:30:35.939Z,61.69
2023-01-07T13:33:05.569Z,61.63
2023-01-07T13:35:53.730Z,61.81
2023-01-07T13:38:26.502Z,61.89
2023-01-07T13:40:56.080Z,61.99
2023-01-07T13:43:55.414Z,62.05
2023-01-07T13:46:24.424Z,62.03
2023-01-07T13:48:52.769Z,62.13
2023-01-07T13:51:33.002Z,62.25
2023-01-07T13:53:59.830Z,62.53
2023-01-07T13:56:26.640Z,62.65
2023-01-07T13:58:55.448Z,62.79
2023-01-07T14:01:33.629Z,62.95
2023-01-07T18:24:24.747Z,73.80
2023-01-07T18:26:51.636Z,73.86
2023-01-07T18:29:18.441Z,73.56
2023-01-07T18:31:45.205Z,73.58
2023-01-07T18:34:13.122Z,73.39
2023-01-07T18:36:40.143Z,72.82
2023-01-07T18:39:09.274Z,72.69
2023-01-07T18:41:36.021Z,72.13
2023-01-07T18:44:02.853Z,71.67
2023-01-07T18:46:29.686Z,71.40
2023-01-07T18:48:56.826Z,71.11
2023-01-07T18:51:23.513Z,70.71
2023-01-07T18:53:50.271Z,70.12
2023-01-07T18:56:17.171Z,69.76
2023-01-07T18:58:44.349Z,69.21
2023-01-07T19:01:11.215Z,68.73
2023-01-07T19:03:38.571Z,68.60
2023-01-07T19:06:08.796Z,68.69
2023-01-07T19:08:35.544Z,68.68
2023-01-07T19:11:05.909Z,68.42
2023-01-07T19:13:32.535Z,68.52
2023-01-07T19:15:59.219Z,68.85
2023-01-07T19:18:25.875Z,68.92
2023-01-07T19:20:52.565Z,69.01
2023-01-07T19:23:19.207Z,68.80
2023-01-07T19:25:55.732Z,68.96
2023-01-07T19:28:22.393Z,68.88
2023-01-07T19:30:49.139Z,68.49
2023-01-07T19:33:15.772Z,68.62
2023-01-07T19:35:42.576Z,68.54
2023-01-07T19:38:09.346Z,68.18
2023-01-07T19:40:36.095Z,67.47
2023-01-07T19:43:02.707Z,66.89
2023-01-07T19:45:29.507Z,66.80
2023-01-07T19:47:56.146Z,66.84
2023-01-07T19:50:22.854Z,66.80
2023-01-07T19:52:49.536Z,66.49
2023-01-07T19:55:21.353Z,66.12
2023-01-07T19:57:54.044Z,65.76
2023-01-07T20:00:23.943Z,65.50
2023-01-07T20:03:15.709Z,65.36
2023-01-07T20:05:46.531Z,65.49
2023-01-07T20:08:13.365Z,65.81
2023-01-07T20:10:40.963Z,65.96
2023-01-07T20:13:07.585Z,66.11
2023-01-07T20:15:34.266Z,66.21
2023-01-07T20:18:00.907Z,66.06
2023-01-07T20:20:27.719Z,66.03
2023-01-07T20:22:54.902Z,66.16
2023-01-07T20:25:21.603Z,66.31
2023-01-07T20:27:48.288Z,66.34
2023-01-07T20:30:14.967Z,66.45
2023-01-07T20:32:41.731Z,66.32
2023-01-07T20:35:09.095Z,66.39
2023-01-07T20:37:35.820Z,66.34
2023-01-07T20:40:02.808Z,66.15
2023-01-07T20:42:31.823Z,65.98
2023-01-07T20:44:58.514Z,65.84
2023-01-07T20:47:25.190Z,65.81
2023-01-07T20:49:51.861Z,65.80
2023-01-07T20:52:18.531Z,65.76
2023-01-07T20:54:47.215Z,65.74
2023-01-07T20:57:14.079Z,65.96
2023-01-07T20:59:40.838Z,66.02
2023-01-07T21:02:13.649Z,66.00
2023-01-07T21:04:40.420Z,66.18
2023-01-07T21:07:07.190Z,66.27
2023-01-07T21:09:33.821Z,66.40
2023-01-07T21:12:00.839Z,66.62
2023-01-07T21:14:27.472Z,66.79
2023-01-07T21:16:54.158Z,66.96
2023-01-07T21:19:20.944Z,67.12
2023-01-07T21:21:48.682Z,67.40
2023-01-07T21:24:17.367Z,67.37
2023-01-07T21:26:44.238Z,67.30
2023-01-07T21:29:11.975Z,67.37
2023-01-07T21:31:38.736Z,67.37
2023-01-07T21:34:05.522Z,67.32
2023-01-07T21:36:32.163Z,67.02
2023-01-07T21:39:00.534Z,66.97
2023-01-07T21:41:28.460Z,66.81
2023-01-07T21:43:56.174Z,66.50
2023-01-07T21:46:23.057Z,66.33
2023-01-07T21:48:50.366Z,66.41
2023-01-07T21:51:19.236Z,66.20
2023-01-07T21:53:45.947Z,66.44
2023-01-07T21:56:14.984Z,66.18
2023-01-07T21:58:41.970Z,66.33
2023-01-07T22:01:09.971Z,66.51
2023-01-07T22:03:37.100Z,66.49
2023-01-07T22:06:08.696Z,66.33
2023-01-07T22:08:35.445Z,66.47
2023-01-07T22:11:02.257Z,66.59
2023-01-07T22:13:28.904Z,66.95
2023-01-07T22:15:56.144Z,67.33
2023-01-07T22:18:23.074Z,67.75
2023-01-07T22:20:56.131Z,68.01
2023-01-07T22:23:23.258Z,68.26
2023-01-07T22:25:49.897Z,68.60
2023-01-07T22:28:17.161Z,68.54
2023-01-07T22:30:47.069Z,68.74
2023-01-07T22:33:13.705Z,68.69
2023-01-07T22:35:40.356Z,68.81
2023-01-07T22:38:07.384Z,68.61
2023-01-07T22:40:34.996Z,68.50
2023-01-07T22:43:04.120Z,68.30
2023-01-07T22:45:48.410Z,68.07
2023-01-07T22:48:15.559Z,68.26
2023-01-07T22:50:42.226Z,68.04
2023-01-07T22:53:09.121Z,67.89
2023-01-07T22:55:35.891Z,67.91
2023-01-07T22:58:02.737Z,67.59
2023-01-07T23:00:51.672Z,67.40
2023-01-07T23:03:19.355Z,67.47
2023-01-07T23:05:46.127Z,67.44
2023-01-07T23:08:12.843Z,67.29
2023-01-07T23:10:39.832Z,67.25
2023-01-07T23:13:06.893Z,67.45
2023-01-07T23:15:34.085Z,67.25
2023-01-07T23:18:00.766Z,67.28
2023-01-07T23:20:27.531Z,67.38
2023-01-07T23:22:54.181Z,67.14
2023-01-07T23:25:20.872Z,67.01
2023-01-07T23:27:48.912Z,66.76
2023-01-07T23:30:15.745Z,66.80
2023-01-07T23:32:42.568Z,66.81
2023-01-07T23:35:09.497Z,66.92
2023-01-07T23:37:36.261Z,66.73
2023-01-07T23:40:03.199Z,66.61
2023-01-07T23:42:30.033Z,66.67
2023-01-07T23:44:57.215Z,66.70
2023-01-07T23:47:24.061Z,66.64
2023-01-07T23:49:50.695Z,66.62
2023-01-07T23:52:19.141Z,66.80
2023-01-07T23:54:46.294Z,67.04
2023-01-07T23:57:12.935Z,67.09
2023-01-07T23:59:39.663Z,67.26
